sensor_id;sensor_type;location;lat;lon;timestamp;P1;durP1;ratioP1;P2;durP2;ratioP2
53644;SDS011;39547;45.554;12.068;2022-12-07T00:04:56;37.05;;;19.58;;
53644;SDS011;39547;45.554;12.068;2022-12-07T00:11:16;35.35;;;19.85;;
53644;SDS011;39547;45.554;12.068;2022-12-07T00:17:22;45.53;;;21.40;;
53644;SDS011;39547;45.554;12.068;2022-12-07T00:23:24;35.95;;;20.33;;
53644;SDS011;39547;45.554;12.068;2022-12-07T00:29:25;49.97;;;24.75;;
53644;SDS011;39547;45.554;12.068;2022-12-07T00:35:27;47.67;;;24.60;;
53644;SDS011;39547;45.554;12.068;2022-12-07T00:41:28;36.58;;;20.52;;
53644;SDS011;39547;45.554;12.068;2022-12-07T00:47:30;35.00;;;19.92;;
53644;SDS011;39547;45.554;12.068;2022-12-07T00:53:35;36.88;;;20.70;;
53644;SDS011;39547;45.554;12.068;2022-12-07T00:59:37;36.60;;;20.95;;
53644;SDS011;39547;45.554;12.068;2022-12-07T01:05:39;33.92;;;19.10;;
53644;SDS011;39547;45.554;12.068;2022-12-07T01:11:40;33.95;;;19.30;;
53644;SDS011;39547;45.554;12.068;2022-12-07T01:17:42;32.58;;;18.88;;
53644;SDS011;39547;45.554;12.068;2022-12-07T01:23:44;34.40;;;19.17;;
53644;SDS011;39547;45.554;12.068;2022-12-07T01:29:45;32.28;;;19.05;;
53644;SDS011;39547;45.554;12.068;2022-12-07T01:35:47;31.52;;;18.00;;
53644;SDS011;39547;45.554;12.068;2022-12-07T01:41:48;31.30;;;18.30;;
53644;SDS011;39547;45.554;12.068;2022-12-07T01:47:51;34.15;;;18.98;;
53644;SDS011;39547;45.554;12.068;2022-12-07T01:53:56;32.08;;;17.85;;
53644;SDS011;39547;45.554;12.068;2022-12-07T01:59:58;35.00;;;19.67;;
53644;SDS011;39547;45.554;12.068;2022-12-07T02:06:14;33.53;;;19.63;;
53644;SDS011;39547;45.554;12.068;2022-12-07T02:12:20;35.78;;;20.23;;
53644;SDS011;39547;45.554;12.068;2022-12-07T02:18:30;37.30;;;21.65;;
53644;SDS011;39547;45.554;12.068;2022-12-07T02:31:11;38.75;;;22.67;;
53644;SDS011;39547;45.554;12.068;2022-12-07T02:43:57;38.22;;;22.85;;
53644;SDS011;39547;45.554;12.068;2022-12-07T02:50:04;36.13;;;21.15;;
53644;SDS011;39547;45.554;12.068;2022-12-07T03:14:50;31.85;;;16.55;;
53644;SDS011;39547;45.554;12.068;2022-12-07T03:21:01;29.23;;;16.05;;
53644;SDS011;39547;45.554;12.068;2022-12-07T03:27:06;28.95;;;15.57;;
53644;SDS011;39547;45.554;12.068;2022-12-07T03:33:19;28.42;;;15.82;;
53644;SDS011;39547;45.554;12.068;2022-12-07T03:39:30;28.95;;;15.43;;
53644;SDS011;39547;45.554;12.068;2022-12-07T03:46:34;30.25;;;16.13;;
53644;SDS011;39547;45.554;12.068;2022-12-07T03:52:24;26.88;;;14.00;;
53644;SDS011;39547;45.554;12.068;2022-12-07T03:58:45;28.50;;;14.93;;
53644;SDS011;39547;45.554;12.068;2022-12-07T04:04:48;25.08;;;13.63;;
53644;SDS011;39547;45.554;12.068;2022-12-07T04:10:49;30.95;;;15.68;;
53644;SDS011;39547;45.554;12.068;2022-12-07T04:16:52;32.50;;;17.30;;
53644;SDS011;39547;45.554;12.068;2022-12-07T04:22:58;33.58;;;18.08;;
53644;SDS011;39547;45.554;12.068;2022-12-07T04:29:00;31.85;;;16.75;;
53644;SDS011;39547;45.554;12.068;2022-12-07T04:35:02;31.38;;;16.42;;
53644;SDS011;39547;45.554;12.068;2022-12-07T04:41:07;29.92;;;16.45;;
53644;SDS011;39547;45.554;12.068;2022-12-07T04:47:09;30.80;;;16.80;;
53644;SDS011;39547;45.554;12.068;2022-12-07T04:53:11;32.88;;;17.70;;
53644;SDS011;39547;45.554;12.068;2022-12-07T04:59:13;30.30;;;16.95;;
53644;SDS011;39547;45.554;12.068;2022-12-07T05:05:15;28.55;;;15.15;;
53644;SDS011;39547;45.554;12.068;2022-12-07T05:11:17;28.65;;;15.30;;
53644;SDS011;39547;45.554;12.068;2022-12-07T05:17:36;27.55;;;15.43;;
53644;SDS011;39547;45.554;12.068;2022-12-07T05:23:38;27.10;;;15.05;;
53644;SDS011;39547;45.554;12.068;2022-12-07T05:29:39;25.83;;;13.48;;
53644;SDS011;39547;45.554;12.068;2022-12-07T05:35:41;30.80;;;16.70;;
53644;SDS011;39547;45.554;12.068;2022-12-07T05:41:42;30.25;;;16.20;;
53644;SDS011;39547;45.554;12.068;2022-12-07T05:48:02;28.90;;;15.52;;
53644;SDS011;39547;45.554;12.068;2022-12-07T05:54:04;29.08;;;16.17;;
53644;SDS011;39547;45.554;12.068;2022-12-07T06:00:06;28.20;;;15.38;;
53644;SDS011;39547;45.554;12.068;2022-12-07T06:06:13;27.42;;;14.95;;
53644;SDS011;39547;45.554;12.068;2022-12-07T06:12:14;30.58;;;16.10;;
53644;SDS011;39547;45.554;12.068;2022-12-07T06:18:34;27.00;;;14.98;;
53644;SDS011;39547;45.554;12.068;2022-12-07T06:24:36;31.83;;;18.13;;
53644;SDS011;39547;45.554;12.068;2022-12-07T06:30:38;32.10;;;17.17;;
53644;SDS011;39547;45.554;12.068;2022-12-07T06:36:39;33.22;;;17.90;;
53644;SDS011;39547;45.554;12.068;2022-12-07T06:42:41;31.65;;;18.15;;
53644;SDS011;39547;45.554;12.068;2022-12-07T06:48:43;32.60;;;18.85;;
53644;SDS011;39547;45.554;12.068;2022-12-07T06:54:44;32.22;;;18.20;;
53644;SDS011;39547;45.554;12.068;2022-12-07T07:00:47;33.13;;;18.15;;
53644;SDS011;39547;45.554;12.068;2022-12-07T07:06:49;31.73;;;17.73;;
53644;SDS011;39547;45.554;12.068;2022-12-07T07:12:50;36.72;;;21.40;;
53644;SDS011;39547;45.554;12.068;2022-12-07T07:18:52;36.17;;;19.52;;
53644;SDS011;39547;45.554;12.068;2022-12-07T07:24:53;33.58;;;19.23;;
53644;SDS011;39547;45.554;12.068;2022-12-07T07:30:55;33.53;;;19.08;;
53644;SDS011;39547;45.554;12.068;2022-12-07T07:36:56;32.33;;;18.65;;
53644;SDS011;39547;45.554;12.068;2022-12-07T07:42:58;33.47;;;18.13;;
53644;SDS011;39547;45.554;12.068;2022-12-07T07:48:59;32.95;;;17.77;;
53644;SDS011;39547;45.554;12.068;2022-12-07T07:55:01;33.30;;;18.73;;
53644;SDS011;39547;45.554;12.068;2022-12-07T08:01:04;50.83;;;29.92;;
53644;SDS011;39547;45.554;12.068;2022-12-07T08:07:06;41.83;;;24.60;;
53644;SDS011;39547;45.554;12.068;2022-12-07T08:13:08;39.55;;;22.75;;
53644;SDS011;39547;45.554;12.068;2022-12-07T08:19:12;38.88;;;22.15;;
53644;SDS011;39547;45.554;12.068;2022-12-07T08:25:14;37.85;;;21.58;;
53644;SDS011;39547;45.554;12.068;2022-12-07T08:31:16;35.13;;;20.30;;
53644;SDS011;39547;45.554;12.068;2022-12-07T08:37:19;34.90;;;19.08;;
53644;SDS011;39547;45.554;12.068;2022-12-07T08:43:20;34.90;;;19.98;;
53644;SDS011;39547;45.554;12.068;2022-12-07T08:49:24;40.40;;;21.77;;
53644;SDS011;39547;45.554;12.068;2022-12-07T08:55:32;34.88;;;19.63;;
53644;SDS011;39547;45.554;12.068;2022-12-07T09:01:35;32.78;;;19.00;;
53644;SDS011;39547;45.554;12.068;2022-12-07T09:07:36;32.05;;;18.48;;
53644;SDS011;39547;45.554;12.068;2022-12-07T09:13:39;31.90;;;18.25;;
53644;SDS011;39547;45.554;12.068;2022-12-07T09:19:40;33.60;;;18.38;;
53644;SDS011;39547;45.554;12.068;2022-12-07T09:25:43;32.03;;;17.40;;
53644;SDS011;39547;45.554;12.068;2022-12-07T09:31:44;27.65;;;15.60;;
53644;SDS011;39547;45.554;12.068;2022-12-07T09:37:46;26.90;;;15.23;;
53644;SDS011;39547;45.554;12.068;2022-12-07T09:43:47;27.13;;;14.73;;
53644;SDS011;39547;45.554;12.068;2022-12-07T09:49:49;28.15;;;14.82;;
53644;SDS011;39547;45.554;12.068;2022-12-07T09:55:51;24.77;;;13.43;;
53644;SDS011;39547;45.554;12.068;2022-12-07T10:01:53;28.80;;;15.38;;
53644;SDS011;39547;45.554;12.068;2022-12-07T10:07:56;27.85;;;15.68;;
53644;SDS011;39547;45.554;12.068;2022-12-07T10:14:09;26.90;;;15.15;;
53644;SDS011;39547;45.554;12.068;2022-12-07T10:26:28;26.70;;;14.82;;
53644;SDS011;39547;45.554;12.068;2022-12-07T10:32:34;27.33;;;15.38;;
53644;SDS011;39547;45.554;12.068;2022-12-07T10:38:39;24.70;;;13.70;;
53644;SDS011;39547;45.554;12.068;2022-12-07T10:44:47;26.05;;;13.95;;
53644;SDS011;39547;45.554;12.068;2022-12-07T11:16:23;20.25;;;10.82;;
53644;SDS011;39547;45.554;12.068;2022-12-07T11:28:56;18.65;;;9.80;;
53644;SDS011;39547;45.554;12.068;2022-12-07T11:35:13;18.52;;;8.60;;
53644;SDS011;39547;45.554;12.068;2022-12-07T11:41:28;17.80;;;7.93;;
53644;SDS011;39547;45.554;12.068;2022-12-07T11:53:43;15.32;;;6.47;;
53644;SDS011;39547;45.554;12.068;2022-12-07T11:59:50;15.55;;;6.07;;
53644;SDS011;39547;45.554;12.068;2022-12-07T12:05:57;14.88;;;6.10;;
53644;SDS011;39547;45.554;12.068;2022-12-07T12:18:13;15.38;;;6.60;;
53644;SDS011;39547;45.554;12.068;2022-12-07T12:24:28;15.38;;;7.28;;
53644;SDS011;39547;45.554;12.068;2022-12-07T12:30:35;17.45;;;7.63;;
53644;SDS011;39547;45.554;12.068;2022-12-07T12:55:23;18.20;;;7.50;;
53644;SDS011;39547;45.554;12.068;2022-12-07T13:01:53;17.15;;;8.10;;
53644;SDS011;39547;45.554;12.068;2022-12-07T13:20:45;17.08;;;8.68;;
53644;SDS011;39547;45.554;12.068;2022-12-07T13:27:10;17.50;;;8.30;;
53644;SDS011;39547;45.554;12.068;2022-12-07T13:33:13;15.90;;;7.20;;
53644;SDS011;39547;45.554;12.068;2022-12-07T13:39:20;16.00;;;7.25;;
53644;SDS011;39547;45.554;12.068;2022-12-07T13:51:52;17.70;;;7.90;;
53644;SDS011;39547;45.554;12.068;2022-12-07T13:57:54;15.02;;;6.55;;
53644;SDS011;39547;45.554;12.068;2022-12-07T14:04:16;15.10;;;6.50;;
53644;SDS011;39547;45.554;12.068;2022-12-07T14:16:32;16.80;;;7.05;;
53644;SDS011;39547;45.554;12.068;2022-12-07T14:22:36;16.25;;;6.85;;
53644;SDS011;39547;45.554;12.068;2022-12-07T14:28:40;14.25;;;6.05;;
53644;SDS011;39547;45.554;12.068;2022-12-07T14:34:56;15.88;;;6.72;;
53644;SDS011;39547;45.554;12.068;2022-12-07T14:41:04;15.57;;;6.45;;
53644;SDS011;39547;45.554;12.068;2022-12-07T14:47:29;16.33;;;6.93;;
53644;SDS011;39547;45.554;12.068;2022-12-07T14:53:33;16.27;;;7.25;;
53644;SDS011;39547;45.554;12.068;2022-12-07T14:59:37;16.67;;;7.07;;
53644;SDS011;39547;45.554;12.068;2022-12-07T15:05:39;16.30;;;7.57;;
53644;SDS011;39547;45.554;12.068;2022-12-07T15:11:41;17.20;;;7.78;;
53644;SDS011;39547;45.554;12.068;2022-12-07T15:17:43;17.52;;;7.72;;
53644;SDS011;39547;45.554;12.068;2022-12-07T15:23:45;17.10;;;7.50;;
53644;SDS011;39547;45.554;12.068;2022-12-07T15:29:47;17.17;;;7.70;;
53644;SDS011;39547;45.554;12.068;2022-12-07T15:35:49;17.95;;;7.95;;
53644;SDS011;39547;45.554;12.068;2022-12-07T15:41:50;17.40;;;7.68;;
53644;SDS011;39547;45.554;12.068;2022-12-07T15:47:52;18.58;;;8.63;;
53644;SDS011;39547;45.554;12.068;2022-12-07T15:53:57;18.90;;;8.50;;
53644;SDS011;39547;45.554;12.068;2022-12-07T15:59:59;17.95;;;8.25;;
53644;SDS011;39547;45.554;12.068;2022-12-07T16:06:00;19.63;;;9.02;;
53644;SDS011;39547;45.554;12.068;2022-12-07T16:12:02;20.67;;;10.02;;
53644;SDS011;39547;45.554;12.068;2022-12-07T16:18:04;21.30;;;10.55;;
53644;SDS011;39547;45.554;12.068;2022-12-07T16:24:06;21.83;;;10.35;;
53644;SDS011;39547;45.554;12.068;2022-12-07T16:30:08;22.15;;;10.90;;
53644;SDS011;39547;45.554;12.068;2022-12-07T16:36:10;22.35;;;11.75;;
53644;SDS011;39547;45.554;12.068;2022-12-07T16:42:14;24.37;;;12.73;;
53644;SDS011;39547;45.554;12.068;2022-12-07T16:48:15;24.65;;;13.00;;
53644;SDS011;39547;45.554;12.068;2022-12-07T16:54:17;26.27;;;14.38;;
53644;SDS011;39547;45.554;12.068;2022-12-07T17:00:20;27.52;;;14.85;;
53644;SDS011;39547;45.554;12.068;2022-12-07T17:06:23;27.13;;;14.88;;
53644;SDS011;39547;45.554;12.068;2022-12-07T17:12:26;28.00;;;15.10;;
53644;SDS011;39547;45.554;12.068;2022-12-07T17:18:28;30.63;;;16.63;;
53644;SDS011;39547;45.554;12.068;2022-12-07T17:24:34;28.67;;;15.75;;
53644;SDS011;39547;45.554;12.068;2022-12-07T17:30:37;30.70;;;16.88;;
53644;SDS011;39547;45.554;12.068;2022-12-07T17:37:06;32.47;;;17.65;;
53644;SDS011;39547;45.554;12.068;2022-12-07T17:43:07;32.75;;;17.92;;
53644;SDS011;39547;45.554;12.068;2022-12-07T17:49:09;34.45;;;18.73;;
53644;SDS011;39547;45.554;12.068;2022-12-07T17:55:11;32.72;;;18.52;;
53644;SDS011;39547;45.554;12.068;2022-12-07T18:01:12;33.88;;;18.25;;
53644;SDS011;39547;45.554;12.068;2022-12-07T18:07:14;35.13;;;19.45;;
53644;SDS011;39547;45.554;12.068;2022-12-07T18:13:16;35.35;;;18.42;;
53644;SDS011;39547;45.554;12.068;2022-12-07T18:19:35;34.20;;;18.42;;
53644;SDS011;39547;45.554;12.068;2022-12-07T18:25:37;35.92;;;18.65;;
53644;SDS011;39547;45.554;12.068;2022-12-07T18:31:38;39.63;;;21.35;;
53644;SDS011;39547;45.554;12.068;2022-12-07T18:37:40;38.90;;;21.73;;
53644;SDS011;39547;45.554;12.068;2022-12-07T18:43:41;43.88;;;24.10;;
53644;SDS011;39547;45.554;12.068;2022-12-07T18:49:43;43.08;;;23.70;;
53644;SDS011;39547;45.554;12.068;2022-12-07T18:55:45;42.17;;;23.48;;
53644;SDS011;39547;45.554;12.068;2022-12-07T19:01:48;42.33;;;23.55;;
53644;SDS011;39547;45.554;12.068;2022-12-07T19:07:53;42.47;;;22.75;;
53644;SDS011;39547;45.554;12.068;2022-12-07T19:13:54;41.20;;;22.67;;
53644;SDS011;39547;45.554;12.068;2022-12-07T19:19:56;43.65;;;25.17;;
53644;SDS011;39547;45.554;12.068;2022-12-07T19:25:58;42.88;;;24.45;;
53644;SDS011;39547;45.554;12.068;2022-12-07T19:31:59;40.50;;;22.77;;
53644;SDS011;39547;45.554;12.068;2022-12-07T19:38:02;43.78;;;25.08;;
53644;SDS011;39547;45.554;12.068;2022-12-07T19:44:05;42.40;;;24.48;;
53644;SDS011;39547;45.554;12.068;2022-12-07T19:50:09;42.67;;;24.80;;
53644;SDS011;39547;45.554;12.068;2022-12-07T19:56:17;50.15;;;28.10;;
53644;SDS011;39547;45.554;12.068;2022-12-07T20:02:20;49.75;;;27.83;;
53644;SDS011;39547;45.554;12.068;2022-12-07T20:08:22;47.00;;;27.13;;
53644;SDS011;39547;45.554;12.068;2022-12-07T20:14:23;42.92;;;26.08;;
53644;SDS011;39547;45.554;12.068;2022-12-07T20:20:25;43.50;;;26.02;;
53644;SDS011;39547;45.554;12.068;2022-12-07T20:26:26;46.75;;;26.80;;
53644;SDS011;39547;45.554;12.068;2022-12-07T20:32:28;43.33;;;25.95;;
53644;SDS011;39547;45.554;12.068;2022-12-07T20:38:30;44.33;;;26.98;;
53644;SDS011;39547;45.554;12.068;2022-12-07T20:44:32;47.10;;;25.83;;
53644;SDS011;39547;45.554;12.068;2022-12-07T20:50:34;40.85;;;24.42;;
53644;SDS011;39547;45.554;12.068;2022-12-07T20:56:36;43.15;;;25.02;;
53644;SDS011;39547;45.554;12.068;2022-12-07T21:02:38;38.88;;;22.40;;
53644;SDS011;39547;45.554;12.068;2022-12-07T21:08:43;37.10;;;21.75;;
53644;SDS011;39547;45.554;12.068;2022-12-07T21:14:48;36.50;;;20.83;;
53644;SDS011;39547;45.554;12.068;2022-12-07T21:20:50;35.75;;;20.92;;
53644;SDS011;39547;45.554;12.068;2022-12-07T21:26:51;36.80;;;21.02;;
53644;SDS011;39547;45.554;12.068;2022-12-07T21:32:53;41.60;;;23.17;;
53644;SDS011;39547;45.554;12.068;2022-12-07T21:38:55;37.03;;;21.63;;
53644;SDS011;39547;45.554;12.068;2022-12-07T21:44:57;41.90;;;22.88;;
53644;SDS011;39547;45.554;12.068;2022-12-07T21:51:08;43.60;;;24.08;;
53644;SDS011;39547;45.554;12.068;2022-12-07T21:57:11;41.10;;;23.08;;
53644;SDS011;39547;45.554;12.068;2022-12-07T22:03:13;40.55;;;22.73;;
53644;SDS011;39547;45.554;12.068;2022-12-07T22:09:14;38.53;;;21.65;;
53644;SDS011;39547;45.554;12.068;2022-12-07T22:15:18;37.20;;;20.97;;
53644;SDS011;39547;45.554;12.068;2022-12-07T22:21:20;37.88;;;21.65;;
53644;SDS011;39547;45.554;12.068;2022-12-07T22:27:22;39.88;;;22.20;;
53644;SDS011;39547;45.554;12.068;2022-12-07T22:33:24;37.03;;;21.70;;
53644;SDS011;39547;45.554;12.068;2022-12-07T22:39:25;38.63;;;21.48;;
53644;SDS011;39547;45.554;12.068;2022-12-07T22:45:26;39.05;;;21.52;;
53644;SDS011;39547;45.554;12.068;2022-12-07T22:51:32;38.00;;;21.70;;
53644;SDS011;39547;45.554;12.068;2022-12-07T22:57:35;37.35;;;21.20;;
53644;SDS011;39547;45.554;12.068;2022-12-07T23:03:36;40.28;;;22.15;;
53644;SDS011;39547;45.554;12.068;2022-12-07T23:09:38;34.80;;;20.10;;
53644;SDS011;39547;45.554;12.068;2022-12-07T23:15:40;33.40;;;18.42;;
53644;SDS011;39547;45.554;12.068;2022-12-07T23:21:41;34.45;;;18.90;;
53644;SDS011;39547;45.554;12.068;2022-12-07T23:27:43;32.17;;;17.95;;
53644;SDS011;39547;45.554;12.068;2022-12-07T23:33:44;30.50;;;17.55;;
53644;SDS011;39547;45.554;12.068;2022-12-07T23:39:46;32.08;;;18.33;;
53644;SDS011;39547;45.554;12.068;2022-12-07T23:45:47;32.28;;;18.15;;
53644;SDS011;39547;45.554;12.068;2022-12-07T23:51:49;29.73;;;16.90;;
53644;SDS011;39547;45.554;12.068;2022-12-07T23:57:50;30.08;;;16.38;;
